createdAt,value
2023-03-23T00:03:46.561Z,5425.00
2023-03-23T00:07:47.283Z,5307.00
2023-03-23T00:11:48.005Z,5152.00
2023-03-23T00:15:48.767Z,4945.00
2023-03-23T00:19:49.515Z,4796.00
2023-03-23T00:23:50.237Z,4721.00
2023-03-23T00:27:50.993Z,4640.00
2023-03-23T00:31:51.763Z,4936.00
2023-03-23T00:35:52.530Z,4841.00
2023-03-23T00:39:53.204Z,5041.00
2023-03-23T00:43:53.927Z,4842.00
2023-03-23T00:47:54.641Z,5076.00
2023-03-23T00:51:55.390Z,4938.00
2023-03-23T00:55:56.130Z,4767.00
2023-03-23T00:59:56.942Z,4910.00
2023-03-23T01:03:58.683Z,4998.00
2023-03-23T01:07:58.409Z,5124.00
2023-03-23T01:11:59.145Z,4701.00
2023-03-23T01:15:59.883Z,4978.00
2023-03-23T01:20:00.596Z,4849.00
2023-03-23T01:24:01.310Z,4936.00
2023-03-23T01:28:02.002Z,4847.00
2023-03-23T01:32:02.710Z,4640.00
2023-03-23T01:36:03.475Z,4644.00
2023-03-23T01:40:04.213Z,4773.00
2023-03-23T01:44:04.993Z,5042.00
2023-03-23T01:48:05.740Z,4666.00
2023-03-23T01:52:06.518Z,4332.00
2023-03-23T01:56:07.307Z,4238.00
2023-03-23T02:00:08.080Z,4087.00
2023-03-23T02:04:08.836Z,4536.00
2023-03-23T02:08:09.585Z,4420.00
2023-03-23T02:12:10.391Z,4307.00
2023-03-23T02:16:11.154Z,3509.00
2023-03-23T02:20:11.973Z,3328.00
2023-03-23T02:24:12.780Z,2995.00
2023-03-23T02:28:13.646Z,3784.00
2023-03-23T02:32:14.537Z,4418.00
2023-03-23T02:36:15.395Z,4083.00
2023-03-23T02:40:16.405Z,3938.00
2023-03-23T05:08:50.824Z,4088.00
2023-03-23T05:16:52.706Z,3126.00
2023-03-23T05:20:53.585Z,3024.00
2023-03-23T05:24:54.509Z,2821.00
2023-03-23T05:28:55.433Z,3007.00
2023-03-23T05:32:57.353Z,3485.00
2023-03-23T05:36:57.229Z,3476.00
2023-03-23T05:40:58.098Z,2795.00
2023-03-23T05:44:58.971Z,1698.00
2023-03-23T05:48:59.995Z,2192.00
2023-03-23T05:53:00.959Z,3314.00
2023-03-23T05:57:02.069Z,4438.00
2023-03-23T06:01:03.140Z,4013.00
2023-03-23T06:05:04.183Z,3095.00
2023-03-23T06:09:06.620Z,2802.00
2023-03-23T06:13:06.273Z,1304.00
2023-03-23T06:17:07.322Z,1252.00
2023-03-23T06:21:08.387Z,1813.00
2023-03-23T06:29:09.903Z,1759.00
2023-03-23T06:33:10.719Z,1273.00
2023-03-23T06:37:11.408Z,1099.00
2023-03-23T06:41:12.182Z,543.00
2023-03-23T06:45:13.062Z,497.00
2023-03-23T06:49:13.926Z,612.00
2023-03-23T06:53:14.738Z,1931.00
2023-03-23T06:57:15.575Z,1844.00
2023-03-23T07:01:16.473Z,1772.00
2023-03-23T07:05:17.417Z,754.00
2023-03-23T07:09:18.360Z,511.00
2023-03-23T07:13:19.265Z,611.00
2023-03-23T07:17:20.352Z,660.00
2023-03-23T07:21:20.991Z,1398.00
2023-03-23T07:25:21.794Z,1107.00
2023-03-23T07:29:22.754Z,2030.00
2023-03-23T07:33:23.590Z,2646.00
2023-03-23T07:37:24.453Z,725.00
2023-03-23T07:41:25.359Z,548.00
2023-03-23T07:45:27.196Z,495.00
2023-03-23T07:49:27.100Z,550.00
2023-03-23T07:53:27.840Z,564.00
2023-03-23T07:57:28.544Z,499.00
2023-03-23T08:01:29.204Z,552.00
2023-03-23T08:05:29.852Z,594.00
2023-03-23T08:09:30.551Z,596.00
2023-03-23T08:13:31.245Z,695.00
2023-03-23T08:17:31.872Z,774.00
2023-03-23T08:21:33.573Z,745.00
2023-03-23T08:25:33.293Z,901.00
2023-03-23T08:29:34.173Z,835.00
2023-03-23T08:33:34.864Z,638.00
2023-03-23T08:37:35.557Z,500.00
2023-03-23T08:41:36.234Z,585.00
2023-03-23T08:45:36.846Z,566.00
2023-03-23T08:49:37.495Z,797.00
2023-03-23T08:53:38.192Z,590.00
2023-03-23T08:57:38.880Z,948.00
2023-03-23T09:01:39.543Z,781.00
2023-03-23T09:05:40.392Z,1145.00
2023-03-23T09:09:41.633Z,1437.00
2023-03-23T09:13:42.572Z,1435.00
2023-03-23T09:17:42.078Z,1326.00
2023-03-23T09:21:43.201Z,1276.00
2023-03-23T09:25:43.458Z,719.00
2023-03-23T09:29:43.534Z,817.00
2023-03-23T09:33:47.162Z,2246.00
2023-03-23T09:37:44.423Z,2956.00
2023-03-23T09:41:44.892Z,2125.00
2023-03-23T09:45:45.386Z,2672.00
2023-03-23T09:53:46.225Z,2560.00
2023-03-23T11:09:54.052Z,2236.00
2023-03-23T11:13:54.385Z,2106.00
2023-03-23T11:17:54.707Z,1885.00
2023-03-23T11:21:55.221Z,1563.00
2023-03-23T11:25:55.731Z,1720.00
2023-03-23T11:29:58.685Z,1713.00
2023-03-23T11:34:05.977Z,1848.00
2023-03-23T11:57:58.412Z,1121.00
2023-03-23T12:05:58.994Z,1020.00
2023-03-23T12:09:59.304Z,1221.00
2023-03-23T12:13:59.679Z,1123.00
2023-03-23T12:18:00.116Z,1028.00
2023-03-23T12:22:00.533Z,1452.00
2023-03-23T12:30:01.266Z,849.00
2023-03-23T13:02:04.124Z,601.00
2023-03-23T13:10:05.385Z,437.00
2023-03-23T13:14:04.859Z,532.00
2023-03-23T13:26:05.817Z,771.00
2023-03-23T14:50:11.337Z,1240.00
2023-03-23T15:10:10.823Z,799.00
2023-03-23T15:14:10.975Z,1522.00
2023-03-23T15:18:11.365Z,2311.00
2023-03-23T15:22:12.401Z,2394.00
2023-03-23T15:26:11.641Z,2409.00
2023-03-23T15:30:11.745Z,2212.00
2023-03-23T15:34:11.892Z,2702.00
2023-03-23T15:38:12.059Z,3785.00
2023-03-23T15:42:12.254Z,4309.00
2023-03-23T15:46:12.435Z,2992.00
2023-03-23T15:50:12.617Z,2477.00
2023-03-23T15:58:13.003Z,3772.00
2023-03-23T16:02:13.305Z,3296.00
2023-03-23T16:06:13.396Z,2138.00
2023-03-23T16:10:14.602Z,2028.00
2023-03-23T16:14:13.792Z,2158.00
2023-03-23T16:18:14.107Z,2252.00
2023-03-23T16:22:15.162Z,2278.00
2023-03-23T16:26:14.762Z,1896.00
2023-03-23T16:30:15.121Z,1593.00
2023-03-23T16:34:15.518Z,1411.00
2023-03-23T16:38:16.370Z,1875.00
2023-03-23T16:42:16.352Z,1858.00
2023-03-23T16:46:16.858Z,2854.00
2023-03-23T16:50:17.241Z,3843.00
2023-03-23T16:54:17.616Z,4396.00
2023-03-23T16:58:18.330Z,4114.00
2023-03-23T17:02:18.563Z,5551.00
2023-03-23T17:06:18.983Z,4875.00
2023-03-23T17:10:19.229Z,4211.00
2023-03-23T17:14:19.449Z,4308.00
2023-03-23T17:18:19.658Z,4339.00
2023-03-23T17:22:19.892Z,3784.00
2023-03-23T17:26:20.135Z,4995.00
2023-03-23T17:30:20.851Z,5001.00
2023-03-23T17:34:20.661Z,4759.00
2023-03-23T17:38:21.351Z,4845.00
2023-03-23T17:42:21.219Z,5593.00
2023-03-23T17:46:21.533Z,5627.00
2023-03-23T17:50:21.857Z,5194.00
2023-03-23T17:54:22.125Z,6016.00
2023-03-23T17:58:22.530Z,5572.00
2023-03-23T18:02:22.877Z,5216.00
2023-03-23T18:06:23.038Z,6111.00
2023-03-23T18:10:23.422Z,5736.00
2023-03-23T18:14:23.761Z,5476.00
2023-03-23T18:18:24.053Z,5387.00
2023-03-23T18:22:24.393Z,5063.00
2023-03-23T18:26:24.750Z,5492.00
2023-03-23T18:30:25.109Z,5901.00
2023-03-23T18:34:25.463Z,5949.00
2023-03-23T18:38:26.001Z,5861.00
2023-03-23T18:42:26.614Z,6520.00
2023-03-23T18:46:27.079Z,5622.00
2023-03-23T18:50:27.682Z,6331.00
2023-03-23T18:54:28.200Z,6876.00
2023-03-23T18:58:28.778Z,5754.00
2023-03-23T19:02:29.461Z,6116.00
2023-03-23T19:06:29.934Z,5780.00
2023-03-23T19:10:30.889Z,6449.00
2023-03-23T19:14:31.184Z,6562.00
2023-03-23T19:18:31.796Z,6520.00
2023-03-23T19:22:32.440Z,6663.00
2023-03-23T19:26:36.695Z,6258.00
2023-03-23T19:30:33.419Z,6231.00
2023-03-23T19:34:33.897Z,6416.00
2023-03-23T19:38:34.275Z,6467.00
2023-03-23T19:42:34.643Z,6921.00
2023-03-23T19:46:35.035Z,7216.00
2023-03-23T19:50:35.409Z,6349.00
2023-03-23T19:54:35.853Z,6280.00
2023-03-23T19:58:36.192Z,6344.00
2023-03-23T20:02:37.264Z,6437.00
2023-03-23T20:06:37.684Z,6266.00
2023-03-23T20:10:37.409Z,5986.00
2023-03-23T20:14:37.802Z,6311.00
2023-03-23T20:18:38.380Z,6079.00
2023-03-23T20:22:38.835Z,6367.00
2023-03-23T20:26:39.180Z,5062.00
2023-03-23T20:30:39.582Z,5050.00
2023-03-23T20:34:40.413Z,5043.00
2023-03-23T20:38:40.435Z,5809.00
2023-03-23T20:42:40.872Z,5667.00
2023-03-23T20:46:41.316Z,5461.00
2023-03-23T20:50:41.764Z,5903.00
2023-03-23T20:54:42.198Z,6014.00
2023-03-23T20:58:42.657Z,5476.00
2023-03-23T21:02:43.164Z,5811.00
2023-03-23T21:06:43.576Z,5849.00
2023-03-23T21:10:45.150Z,5407.00
2023-03-23T21:14:44.531Z,4997.00
2023-03-23T21:18:45.020Z,5655.00
2023-03-23T21:22:45.516Z,5361.00
2023-03-23T21:26:46.014Z,5420.00
2023-03-23T21:30:46.798Z,5918.00
2023-03-23T21:34:47.204Z,5725.00
2023-03-23T21:38:47.888Z,5282.00
2023-03-23T21:42:48.562Z,5444.00
2023-03-23T21:46:49.260Z,5237.00
2023-03-23T21:50:49.882Z,5065.00
2023-03-23T21:54:50.576Z,5292.00
2023-03-23T21:58:51.285Z,5557.00
2023-03-23T22:02:51.997Z,5570.00
2023-03-23T22:06:52.664Z,5521.00
2023-03-23T22:11:01.387Z,5191.00
2023-03-23T22:14:54.813Z,5160.00
2023-03-23T22:18:54.301Z,5554.00
2023-03-23T22:22:54.931Z,5652.00
2023-03-23T22:26:55.619Z,5575.00
2023-03-23T22:30:56.333Z,5232.00
2023-03-23T22:34:57.463Z,5381.00
2023-03-23T22:38:57.760Z,5695.00
2023-03-23T22:42:58.485Z,5583.00
2023-03-23T22:46:59.945Z,5459.00
2023-03-23T22:50:59.987Z,5387.00
2023-03-23T22:55:00.680Z,5719.00
2023-03-23T22:59:01.357Z,5383.00
2023-03-23T23:03:02.123Z,5166.00
2023-03-23T23:07:12.585Z,4918.00
2023-03-23T23:11:03.330Z,5140.00
2023-03-23T23:15:03.835Z,5147.00
2023-03-23T23:19:04.438Z,5160.00
2023-03-23T23:23:05.464Z,5198.00
2023-03-23T23:27:05.943Z,5051.00
2023-03-23T23:31:06.513Z,4855.00
2023-03-23T23:35:07.056Z,5215.00
2023-03-23T23:39:07.560Z,5145.00
2023-03-23T23:43:08.101Z,5068.00
2023-03-23T23:47:08.640Z,4965.00
2023-03-23T23:51:09.466Z,4704.00
2023-03-23T23:55:09.692Z,5003.00
2023-03-23T23:59:10.229Z,4942.00
